sensor_id;sensor_type;location;lat;lon;timestamp;P1;durP1;ratioP1;P2;durP2;ratioP2
54261;SDS011;40174;52.364;6.452;2023-05-17T00:00:13;9.02;;;2.00;;
54261;SDS011;40174;52.364;6.452;2023-05-17T00:02:41;9.52;;;2.00;;
54261;SDS011;40174;52.364;6.452;2023-05-17T00:05:08;8.75;;;1.83;;
54261;SDS011;40174;52.364;6.452;2023-05-17T00:07:35;7.18;;;1.83;;
54261;SDS011;40174;52.364;6.452;2023-05-17T00:10:02;11.98;;;2.13;;
54261;SDS011;40174;52.364;6.452;2023-05-17T00:12:29;7.63;;;1.80;;
54261;SDS011;40174;52.364;6.452;2023-05-17T00:14:55;13.35;;;2.38;;
54261;SDS011;40174;52.364;6.452;2023-05-17T00:17:23;9.13;;;2.20;;
54261;SDS011;40174;52.364;6.452;2023-05-17T00:19:50;10.70;;;3.03;;
54261;SDS011;40174;52.364;6.452;2023-05-17T00:22:16;10.25;;;2.00;;
54261;SDS011;40174;52.364;6.452;2023-05-17T00:24:43;8.38;;;1.73;;
54261;SDS011;40174;52.364;6.452;2023-05-17T00:27:09;10.73;;;2.50;;
54261;SDS011;40174;52.364;6.452;2023-05-17T00:29:36;12.25;;;2.10;;
54261;SDS011;40174;52.364;6.452;2023-05-17T00:32:03;9.05;;;2.03;;
54261;SDS011;40174;52.364;6.452;2023-05-17T00:34:31;9.38;;;1.75;;
54261;SDS011;40174;52.364;6.452;2023-05-17T00:36:58;11.23;;;2.17;;
54261;SDS011;40174;52.364;6.452;2023-05-17T00:39:24;10.35;;;2.33;;
54261;SDS011;40174;52.364;6.452;2023-05-17T00:41:51;8.68;;;2.30;;
54261;SDS011;40174;52.364;6.452;2023-05-17T00:44:17;9.05;;;2.40;;
54261;SDS011;40174;52.364;6.452;2023-05-17T00:46:44;8.00;;;2.03;;
54261;SDS011;40174;52.364;6.452;2023-05-17T00:49:11;11.38;;;2.53;;
54261;SDS011;40174;52.364;6.452;2023-05-17T00:51:39;7.13;;;2.05;;
54261;SDS011;40174;52.364;6.452;2023-05-17T00:54:08;14.07;;;2.85;;
54261;SDS011;40174;52.364;6.452;2023-05-17T00:56:35;14.30;;;2.33;;
54261;SDS011;40174;52.364;6.452;2023-05-17T00:59:01;5.32;;;2.20;;
54261;SDS011;40174;52.364;6.452;2023-05-17T01:04:08;7.72;;;2.50;;
54261;SDS011;40174;52.364;6.452;2023-05-17T01:06:35;11.20;;;2.83;;
54261;SDS011;40174;52.364;6.452;2023-05-17T01:09:06;11.00;;;2.33;;
54261;SDS011;40174;52.364;6.452;2023-05-17T01:11:36;9.20;;;2.00;;
54261;SDS011;40174;52.364;6.452;2023-05-17T01:14:11;9.90;;;3.45;;
54261;SDS011;40174;52.364;6.452;2023-05-17T01:16:50;8.75;;;1.75;;
54261;SDS011;40174;52.364;6.452;2023-05-17T01:19:29;5.38;;;1.52;;
54261;SDS011;40174;52.364;6.452;2023-05-17T01:22:14;10.13;;;2.40;;
54261;SDS011;40174;52.364;6.452;2023-05-17T01:24:50;12.85;;;2.65;;
54261;SDS011;40174;52.364;6.452;2023-05-17T01:27:26;7.78;;;2.40;;
54261;SDS011;40174;52.364;6.452;2023-05-17T01:29:54;10.00;;;2.72;;
54261;SDS011;40174;52.364;6.452;2023-05-17T01:32:23;10.48;;;2.53;;
54261;SDS011;40174;52.364;6.452;2023-05-17T01:34:50;12.20;;;2.45;;
54261;SDS011;40174;52.364;6.452;2023-05-17T01:37:17;12.85;;;2.30;;
54261;SDS011;40174;52.364;6.452;2023-05-17T01:39:46;11.07;;;2.80;;
54261;SDS011;40174;52.364;6.452;2023-05-17T01:42:15;8.55;;;2.10;;
54261;SDS011;40174;52.364;6.452;2023-05-17T01:44:49;8.23;;;2.65;;
54261;SDS011;40174;52.364;6.452;2023-05-17T01:47:26;12.55;;;2.15;;
54261;SDS011;40174;52.364;6.452;2023-05-17T01:49:58;13.32;;;2.25;;
54261;SDS011;40174;52.364;6.452;2023-05-17T01:52:27;15.23;;;2.60;;
54261;SDS011;40174;52.364;6.452;2023-05-17T01:54:58;9.50;;;2.00;;
54261;SDS011;40174;52.364;6.452;2023-05-17T02:00:04;9.50;;;1.88;;
54261;SDS011;40174;52.364;6.452;2023-05-17T02:02:40;14.95;;;2.47;;
54261;SDS011;40174;52.364;6.452;2023-05-17T02:05:07;9.95;;;2.05;;
54261;SDS011;40174;52.364;6.452;2023-05-17T02:07:38;9.40;;;1.67;;
54261;SDS011;40174;52.364;6.452;2023-05-17T02:10:05;9.27;;;2.28;;
54261;SDS011;40174;52.364;6.452;2023-05-17T02:12:35;19.98;;;2.97;;
54261;SDS011;40174;52.364;6.452;2023-05-17T02:15:03;19.73;;;2.47;;
54261;SDS011;40174;52.364;6.452;2023-05-17T02:17:32;8.82;;;2.03;;
54261;SDS011;40174;52.364;6.452;2023-05-17T02:19:59;12.75;;;1.83;;
54261;SDS011;40174;52.364;6.452;2023-05-17T02:22:30;7.60;;;1.77;;
54261;SDS011;40174;52.364;6.452;2023-05-17T02:24:57;11.27;;;2.55;;
54261;SDS011;40174;52.364;6.452;2023-05-17T02:27:23;5.85;;;1.77;;
54261;SDS011;40174;52.364;6.452;2023-05-17T02:29:51;4.53;;;1.13;;
54261;SDS011;40174;52.364;6.452;2023-05-17T02:32:20;11.32;;;1.73;;
54261;SDS011;40174;52.364;6.452;2023-05-17T02:34:47;10.35;;;1.83;;
54261;SDS011;40174;52.364;6.452;2023-05-17T02:37:14;5.85;;;1.50;;
54261;SDS011;40174;52.364;6.452;2023-05-17T02:39:42;8.18;;;1.73;;
54261;SDS011;40174;52.364;6.452;2023-05-17T02:42:09;11.52;;;2.92;;
54261;SDS011;40174;52.364;6.452;2023-05-17T02:44:36;5.43;;;1.17;;
54261;SDS011;40174;52.364;6.452;2023-05-17T02:47:03;11.18;;;2.15;;
54261;SDS011;40174;52.364;6.452;2023-05-17T02:49:31;6.28;;;2.00;;
54261;SDS011;40174;52.364;6.452;2023-05-17T02:52:02;16.90;;;2.20;;
54261;SDS011;40174;52.364;6.452;2023-05-17T02:54:29;8.07;;;1.55;;
54261;SDS011;40174;52.364;6.452;2023-05-17T02:56:56;12.63;;;3.15;;
54261;SDS011;40174;52.364;6.452;2023-05-17T02:59:23;15.20;;;1.83;;
54261;SDS011;40174;52.364;6.452;2023-05-17T03:01:49;9.07;;;1.58;;
54261;SDS011;40174;52.364;6.452;2023-05-17T03:04:17;7.63;;;1.95;;
54261;SDS011;40174;52.364;6.452;2023-05-17T03:06:47;9.98;;;2.30;;
54261;SDS011;40174;52.364;6.452;2023-05-17T03:09:15;11.30;;;2.03;;
54261;SDS011;40174;52.364;6.452;2023-05-17T03:11:43;12.77;;;2.10;;
54261;SDS011;40174;52.364;6.452;2023-05-17T03:14:19;7.32;;;1.75;;
54261;SDS011;40174;52.364;6.452;2023-05-17T03:16:46;14.82;;;2.58;;
54261;SDS011;40174;52.364;6.452;2023-05-17T03:19:13;10.23;;;1.48;;
54261;SDS011;40174;52.364;6.452;2023-05-17T03:21:42;9.05;;;2.08;;
54261;SDS011;40174;52.364;6.452;2023-05-17T03:24:11;11.38;;;2.55;;
54261;SDS011;40174;52.364;6.452;2023-05-17T03:26:39;6.60;;;1.58;;
54261;SDS011;40174;52.364;6.452;2023-05-17T03:29:08;10.80;;;1.98;;
54261;SDS011;40174;52.364;6.452;2023-05-17T03:31:36;9.73;;;1.85;;
54261;SDS011;40174;52.364;6.452;2023-05-17T03:34:03;10.57;;;1.88;;
54261;SDS011;40174;52.364;6.452;2023-05-17T03:36:31;14.50;;;2.83;;
54261;SDS011;40174;52.364;6.452;2023-05-17T03:39:00;14.52;;;1.73;;
54261;SDS011;40174;52.364;6.452;2023-05-17T03:41:29;16.58;;;2.30;;
54261;SDS011;40174;52.364;6.452;2023-05-17T03:43:57;7.82;;;1.27;;
54261;SDS011;40174;52.364;6.452;2023-05-17T03:46:24;8.68;;;1.55;;
54261;SDS011;40174;52.364;6.452;2023-05-17T03:48:51;10.75;;;1.85;;
54261;SDS011;40174;52.364;6.452;2023-05-17T03:51:18;12.85;;;2.33;;
54261;SDS011;40174;52.364;6.452;2023-05-17T03:53:45;9.65;;;1.75;;
54261;SDS011;40174;52.364;6.452;2023-05-17T03:56:11;11.10;;;1.90;;
54261;SDS011;40174;52.364;6.452;2023-05-17T03:58:41;5.93;;;1.30;;
54261;SDS011;40174;52.364;6.452;2023-05-17T04:01:09;11.02;;;1.98;;
54261;SDS011;40174;52.364;6.452;2023-05-17T04:03:36;16.15;;;2.00;;
54261;SDS011;40174;52.364;6.452;2023-05-17T04:06:05;14.85;;;2.25;;
54261;SDS011;40174;52.364;6.452;2023-05-17T04:08:33;9.30;;;1.67;;
54261;SDS011;40174;52.364;6.452;2023-05-17T04:11:00;15.15;;;2.08;;
54261;SDS011;40174;52.364;6.452;2023-05-17T04:13:35;11.07;;;1.87;;
54261;SDS011;40174;52.364;6.452;2023-05-17T04:16:04;12.95;;;2.20;;
54261;SDS011;40174;52.364;6.452;2023-05-17T04:18:33;13.10;;;2.08;;
54261;SDS011;40174;52.364;6.452;2023-05-17T04:21:03;14.75;;;2.05;;
54261;SDS011;40174;52.364;6.452;2023-05-17T04:23:32;10.98;;;2.20;;
54261;SDS011;40174;52.364;6.452;2023-05-17T04:26:00;7.43;;;1.40;;
54261;SDS011;40174;52.364;6.452;2023-05-17T04:28:30;10.75;;;1.88;;
54261;SDS011;40174;52.364;6.452;2023-05-17T04:30:59;14.30;;;2.45;;
54261;SDS011;40174;52.364;6.452;2023-05-17T04:33:28;13.88;;;2.10;;
54261;SDS011;40174;52.364;6.452;2023-05-17T04:35:58;9.50;;;1.38;;
54261;SDS011;40174;52.364;6.452;2023-05-17T04:38:26;11.20;;;2.28;;
54261;SDS011;40174;52.364;6.452;2023-05-17T04:40:59;10.93;;;1.35;;
54261;SDS011;40174;52.364;6.452;2023-05-17T04:43:27;9.32;;;1.95;;
54261;SDS011;40174;52.364;6.452;2023-05-17T04:45:55;9.25;;;2.42;;
54261;SDS011;40174;52.364;6.452;2023-05-17T04:48:23;9.57;;;1.80;;
54261;SDS011;40174;52.364;6.452;2023-05-17T04:50:52;11.10;;;1.85;;
54261;SDS011;40174;52.364;6.452;2023-05-17T04:53:30;9.68;;;1.80;;
54261;SDS011;40174;52.364;6.452;2023-05-17T04:56:35;16.08;;;2.08;;
54261;SDS011;40174;52.364;6.452;2023-05-17T04:59:06;15.18;;;2.17;;
54261;SDS011;40174;52.364;6.452;2023-05-17T05:01:36;11.13;;;1.73;;
54261;SDS011;40174;52.364;6.452;2023-05-17T05:04:04;11.45;;;2.00;;
54261;SDS011;40174;52.364;6.452;2023-05-17T05:06:36;12.80;;;2.03;;
54261;SDS011;40174;52.364;6.452;2023-05-17T05:09:08;9.30;;;1.50;;
54261;SDS011;40174;52.364;6.452;2023-05-17T05:14:05;10.57;;;1.13;;
54261;SDS011;40174;52.364;6.452;2023-05-17T05:16:33;11.70;;;1.50;;
54261;SDS011;40174;52.364;6.452;2023-05-17T05:19:09;12.95;;;1.77;;
54261;SDS011;40174;52.364;6.452;2023-05-17T05:21:38;14.73;;;1.92;;
54261;SDS011;40174;52.364;6.452;2023-05-17T05:24:06;13.48;;;1.80;;
54261;SDS011;40174;52.364;6.452;2023-05-17T05:26:33;8.50;;;1.58;;
54261;SDS011;40174;52.364;6.452;2023-05-17T05:29:02;10.23;;;1.75;;
54261;SDS011;40174;52.364;6.452;2023-05-17T05:31:31;13.63;;;2.25;;
54261;SDS011;40174;52.364;6.452;2023-05-17T05:34:00;8.35;;;1.33;;
54261;SDS011;40174;52.364;6.452;2023-05-17T05:36:27;12.63;;;1.73;;
54261;SDS011;40174;52.364;6.452;2023-05-17T05:38:56;11.43;;;1.90;;
54261;SDS011;40174;52.364;6.452;2023-05-17T05:41:23;7.75;;;1.27;;
54261;SDS011;40174;52.364;6.452;2023-05-17T05:47:09;11.75;;;1.20;;
54261;SDS011;40174;52.364;6.452;2023-05-17T05:49:36;7.40;;;1.30;;
54261;SDS011;40174;52.364;6.452;2023-05-17T05:52:03;7.05;;;1.23;;
54261;SDS011;40174;52.364;6.452;2023-05-17T05:54:31;12.18;;;1.20;;
54261;SDS011;40174;52.364;6.452;2023-05-17T05:56:58;6.65;;;1.52;;
54261;SDS011;40174;52.364;6.452;2023-05-17T05:59:26;6.72;;;1.25;;
54261;SDS011;40174;52.364;6.452;2023-05-17T06:01:54;10.25;;;1.23;;
54261;SDS011;40174;52.364;6.452;2023-05-17T06:04:25;8.05;;;1.23;;
54261;SDS011;40174;52.364;6.452;2023-05-17T06:07:00;4.53;;;1.20;;
54261;SDS011;40174;52.364;6.452;2023-05-17T06:09:27;11.43;;;1.45;;
54261;SDS011;40174;52.364;6.452;2023-05-17T06:11:57;7.90;;;1.13;;
54261;SDS011;40174;52.364;6.452;2023-05-17T06:14:25;9.82;;;1.17;;
54261;SDS011;40174;52.364;6.452;2023-05-17T06:16:52;6.85;;;1.77;;
54261;SDS011;40174;52.364;6.452;2023-05-17T06:19:19;10.73;;;1.00;;
54261;SDS011;40174;52.364;6.452;2023-05-17T06:21:46;6.82;;;1.10;;
54261;SDS011;40174;52.364;6.452;2023-05-17T06:24:13;5.18;;;0.88;;
54261;SDS011;40174;52.364;6.452;2023-05-17T06:26:39;6.05;;;0.85;;
54261;SDS011;40174;52.364;6.452;2023-05-17T06:29:09;8.93;;;1.25;;
54261;SDS011;40174;52.364;6.452;2023-05-17T06:31:36;2.25;;;1.10;;
54261;SDS011;40174;52.364;6.452;2023-05-17T06:34:03;6.45;;;0.80;;
54261;SDS011;40174;52.364;6.452;2023-05-17T06:36:30;4.15;;;0.60;;
54261;SDS011;40174;52.364;6.452;2023-05-17T06:38:57;7.72;;;1.33;;
54261;SDS011;40174;52.364;6.452;2023-05-17T06:41:23;9.73;;;0.90;;
54261;SDS011;40174;52.364;6.452;2023-05-17T06:43:50;5.50;;;1.15;;
54261;SDS011;40174;52.364;6.452;2023-05-17T06:46:19;6.40;;;1.50;;
54261;SDS011;40174;52.364;6.452;2023-05-17T06:48:46;5.68;;;0.82;;
54261;SDS011;40174;52.364;6.452;2023-05-17T06:51:12;8.40;;;0.77;;
54261;SDS011;40174;52.364;6.452;2023-05-17T06:53:40;6.60;;;1.02;;
54261;SDS011;40174;52.364;6.452;2023-05-17T06:56:07;3.25;;;0.95;;
54261;SDS011;40174;52.364;6.452;2023-05-17T06:58:34;4.57;;;0.98;;
54261;SDS011;40174;52.364;6.452;2023-05-17T07:01:01;5.40;;;1.30;;
54261;SDS011;40174;52.364;6.452;2023-05-17T07:03:28;5.95;;;0.75;;
54261;SDS011;40174;52.364;6.452;2023-05-17T07:05:55;4.50;;;0.70;;
54261;SDS011;40174;52.364;6.452;2023-05-17T07:08:22;3.90;;;0.65;;
54261;SDS011;40174;52.364;6.452;2023-05-17T07:10:49;5.68;;;0.82;;
54261;SDS011;40174;52.364;6.452;2023-05-17T07:13:16;5.00;;;0.70;;
54261;SDS011;40174;52.364;6.452;2023-05-17T07:15:43;2.35;;;0.63;;
54261;SDS011;40174;52.364;6.452;2023-05-17T07:18:09;8.85;;;1.40;;
54261;SDS011;40174;52.364;6.452;2023-05-17T07:20:37;4.28;;;0.70;;
54261;SDS011;40174;52.364;6.452;2023-05-17T07:23:04;6.63;;;0.70;;
54261;SDS011;40174;52.364;6.452;2023-05-17T07:25:31;3.60;;;0.70;;
54261;SDS011;40174;52.364;6.452;2023-05-17T07:27:58;6.00;;;0.85;;
54261;SDS011;40174;52.364;6.452;2023-05-17T07:30:25;6.97;;;1.02;;
54261;SDS011;40174;52.364;6.452;2023-05-17T07:32:51;2.60;;;0.73;;
54261;SDS011;40174;52.364;6.452;2023-05-17T07:35:18;4.45;;;0.70;;
54261;SDS011;40174;52.364;6.452;2023-05-17T07:37:46;7.07;;;0.77;;
54261;SDS011;40174;52.364;6.452;2023-05-17T07:40:12;3.10;;;0.80;;
54261;SDS011;40174;52.364;6.452;2023-05-17T07:42:39;5.78;;;1.60;;
54261;SDS011;40174;52.364;6.452;2023-05-17T07:45:06;2.38;;;0.50;;
54261;SDS011;40174;52.364;6.452;2023-05-17T07:47:34;2.83;;;0.88;;
54261;SDS011;40174;52.364;6.452;2023-05-17T07:50:01;4.28;;;0.63;;
54261;SDS011;40174;52.364;6.452;2023-05-17T07:52:28;7.65;;;0.80;;
54261;SDS011;40174;52.364;6.452;2023-05-17T07:54:56;3.92;;;1.27;;
54261;SDS011;40174;52.364;6.452;2023-05-17T07:57:22;4.53;;;0.80;;
54261;SDS011;40174;52.364;6.452;2023-05-17T07:59:49;5.47;;;0.60;;
54261;SDS011;40174;52.364;6.452;2023-05-17T08:02:16;5.20;;;0.60;;
54261;SDS011;40174;52.364;6.452;2023-05-17T08:04:42;8.38;;;1.08;;
54261;SDS011;40174;52.364;6.452;2023-05-17T08:07:09;4.68;;;0.80;;
54261;SDS011;40174;52.364;6.452;2023-05-17T08:09:35;4.05;;;0.77;;
54261;SDS011;40174;52.364;6.452;2023-05-17T08:12:04;3.53;;;0.93;;
54261;SDS011;40174;52.364;6.452;2023-05-17T08:14:30;5.07;;;0.88;;
54261;SDS011;40174;52.364;6.452;2023-05-17T08:16:57;3.78;;;0.80;;
54261;SDS011;40174;52.364;6.452;2023-05-17T08:19:24;7.00;;;1.05;;
54261;SDS011;40174;52.364;6.452;2023-05-17T08:21:51;6.78;;;0.98;;
54261;SDS011;40174;52.364;6.452;2023-05-17T08:24:17;3.38;;;0.70;;
54261;SDS011;40174;52.364;6.452;2023-05-17T08:26:44;9.07;;;0.95;;
54261;SDS011;40174;52.364;6.452;2023-05-17T08:29:12;4.13;;;1.00;;
54261;SDS011;40174;52.364;6.452;2023-05-17T08:31:39;7.90;;;0.90;;
54261;SDS011;40174;52.364;6.452;2023-05-17T08:34:05;6.18;;;1.13;;
54261;SDS011;40174;52.364;6.452;2023-05-17T08:36:32;9.32;;;0.90;;
54261;SDS011;40174;52.364;6.452;2023-05-17T08:38:59;5.10;;;1.13;;
54261;SDS011;40174;52.364;6.452;2023-05-17T08:41:25;6.13;;;1.10;;
54261;SDS011;40174;52.364;6.452;2023-05-17T08:43:52;5.43;;;0.80;;
54261;SDS011;40174;52.364;6.452;2023-05-17T08:46:22;6.40;;;1.00;;
54261;SDS011;40174;52.364;6.452;2023-05-17T08:48:51;5.28;;;0.77;;
54261;SDS011;40174;52.364;6.452;2023-05-17T08:51:24;6.18;;;1.02;;
54261;SDS011;40174;52.364;6.452;2023-05-17T08:53:51;3.28;;;0.90;;
54261;SDS011;40174;52.364;6.452;2023-05-17T08:56:17;4.55;;;1.27;;
54261;SDS011;40174;52.364;6.452;2023-05-17T08:58:46;6.95;;;0.80;;
54261;SDS011;40174;52.364;6.452;2023-05-17T09:01:14;4.30;;;1.00;;
54261;SDS011;40174;52.364;6.452;2023-05-17T09:03:43;4.22;;;0.80;;
54261;SDS011;40174;52.364;6.452;2023-05-17T09:06:13;6.60;;;1.20;;
54261;SDS011;40174;52.364;6.452;2023-05-17T09:08:42;4.47;;;1.00;;
54261;SDS011;40174;52.364;6.452;2023-05-17T09:11:09;9.70;;;1.23;;
54261;SDS011;40174;52.364;6.452;2023-05-17T09:13:37;5.85;;;1.20;;
54261;SDS011;40174;52.364;6.452;2023-05-17T09:16:11;2.63;;;0.50;;
54261;SDS011;40174;52.364;6.452;2023-05-17T09:18:38;7.43;;;0.95;;
54261;SDS011;40174;52.364;6.452;2023-05-17T09:21:06;2.08;;;0.60;;
54261;SDS011;40174;52.364;6.452;2023-05-17T09:23:36;4.78;;;0.85;;
54261;SDS011;40174;52.364;6.452;2023-05-17T09:26:03;1.98;;;0.77;;
54261;SDS011;40174;52.364;6.452;2023-05-17T09:28:35;3.90;;;0.63;;
54261;SDS011;40174;52.364;6.452;2023-05-17T09:31:04;5.72;;;0.80;;
54261;SDS011;40174;52.364;6.452;2023-05-17T09:33:32;2.95;;;0.60;;
54261;SDS011;40174;52.364;6.452;2023-05-17T09:35:59;6.25;;;1.55;;
54261;SDS011;40174;52.364;6.452;2023-05-17T09:38:28;2.80;;;0.75;;
54261;SDS011;40174;52.364;6.452;2023-05-17T09:40:55;5.18;;;0.50;;
54261;SDS011;40174;52.364;6.452;2023-05-17T09:43:34;3.90;;;0.65;;
54261;SDS011;40174;52.364;6.452;2023-05-17T09:46:02;9.27;;;1.17;;
54261;SDS011;40174;52.364;6.452;2023-05-17T09:48:28;4.65;;;0.80;;
54261;SDS011;40174;52.364;6.452;2023-05-17T09:50:55;6.28;;;0.95;;
54261;SDS011;40174;52.364;6.452;2023-05-17T09:53:22;4.10;;;1.23;;
54261;SDS011;40174;52.364;6.452;2023-05-17T09:55:52;8.32;;;1.52;;
54261;SDS011;40174;52.364;6.452;2023-05-17T09:58:19;4.35;;;1.08;;
54261;SDS011;40174;52.364;6.452;2023-05-17T10:00:47;5.82;;;1.20;;
54261;SDS011;40174;52.364;6.452;2023-05-17T10:03:17;7.07;;;1.40;;
54261;SDS011;40174;52.364;6.452;2023-05-17T10:05:43;7.68;;;1.10;;
54261;SDS011;40174;52.364;6.452;2023-05-17T10:08:12;12.07;;;1.35;;
54261;SDS011;40174;52.364;6.452;2023-05-17T10:10:39;9.20;;;1.17;;
54261;SDS011;40174;52.364;6.452;2023-05-17T10:13:07;7.25;;;1.45;;
54261;SDS011;40174;52.364;6.452;2023-05-17T10:15:37;5.05;;;0.80;;
54261;SDS011;40174;52.364;6.452;2023-05-17T10:18:05;7.53;;;1.42;;
54261;SDS011;40174;52.364;6.452;2023-05-17T10:20:34;9.65;;;1.73;;
54261;SDS011;40174;52.364;6.452;2023-05-17T10:23:01;7.22;;;1.33;;
54261;SDS011;40174;52.364;6.452;2023-05-17T10:25:30;7.63;;;0.93;;
54261;SDS011;40174;52.364;6.452;2023-05-17T10:27:57;6.55;;;1.08;;
54261;SDS011;40174;52.364;6.452;2023-05-17T10:30:27;8.82;;;1.38;;
54261;SDS011;40174;52.364;6.452;2023-05-17T10:32:54;12.25;;;1.38;;
54261;SDS011;40174;52.364;6.452;2023-05-17T10:35:20;4.50;;;1.10;;
54261;SDS011;40174;52.364;6.452;2023-05-17T10:37:49;5.85;;;1.40;;
54261;SDS011;40174;52.364;6.452;2023-05-17T10:40:16;5.20;;;1.25;;
54261;SDS011;40174;52.364;6.452;2023-05-17T10:42:45;8.95;;;1.23;;
54261;SDS011;40174;52.364;6.452;2023-05-17T10:45:16;5.63;;;1.85;;
54261;SDS011;40174;52.364;6.452;2023-05-17T10:47:47;5.32;;;1.05;;
54261;SDS011;40174;52.364;6.452;2023-05-17T10:50:20;5.45;;;1.35;;
54261;SDS011;40174;52.364;6.452;2023-05-17T10:52:48;7.05;;;1.00;;
54261;SDS011;40174;52.364;6.452;2023-05-17T10:55:19;4.85;;;1.05;;
54261;SDS011;40174;52.364;6.452;2023-05-17T10:57:56;7.68;;;0.98;;
54261;SDS011;40174;52.364;6.452;2023-05-17T11:00:37;3.03;;;0.63;;
54261;SDS011;40174;52.364;6.452;2023-05-17T11:03:16;4.68;;;0.90;;
54261;SDS011;40174;52.364;6.452;2023-05-17T11:05:44;6.85;;;0.90;;
54261;SDS011;40174;52.364;6.452;2023-05-17T11:08:41;3.33;;;0.90;;
54261;SDS011;40174;52.364;6.452;2023-05-17T11:11:12;3.13;;;0.63;;
54261;SDS011;40174;52.364;6.452;2023-05-17T11:13:43;8.00;;;1.13;;
54261;SDS011;40174;52.364;6.452;2023-05-17T11:16:13;3.15;;;0.90;;
54261;SDS011;40174;52.364;6.452;2023-05-17T11:18:46;8.77;;;0.85;;
54261;SDS011;40174;52.364;6.452;2023-05-17T11:21:13;3.67;;;0.98;;
54261;SDS011;40174;52.364;6.452;2023-05-17T11:23:41;8.07;;;1.10;;
54261;SDS011;40174;52.364;6.452;2023-05-17T11:26:13;4.00;;;1.02;;
54261;SDS011;40174;52.364;6.452;2023-05-17T11:28:42;4.70;;;1.13;;
54261;SDS011;40174;52.364;6.452;2023-05-17T11:31:09;5.95;;;0.90;;
54261;SDS011;40174;52.364;6.452;2023-05-17T11:33:37;5.50;;;1.15;;
54261;SDS011;40174;52.364;6.452;2023-05-17T11:36:13;8.32;;;1.10;;
54261;SDS011;40174;52.364;6.452;2023-05-17T11:38:43;6.22;;;1.10;;
54261;SDS011;40174;52.364;6.452;2023-05-17T11:41:17;4.25;;;1.10;;
54261;SDS011;40174;52.364;6.452;2023-05-17T11:43:46;4.72;;;1.00;;
54261;SDS011;40174;52.364;6.452;2023-05-17T11:46:17;7.13;;;1.20;;
54261;SDS011;40174;52.364;6.452;2023-05-17T11:48:45;8.93;;;1.25;;
54261;SDS011;40174;52.364;6.452;2023-05-17T11:51:13;6.10;;;0.77;;
54261;SDS011;40174;52.364;6.452;2023-05-17T11:53:40;6.82;;;1.13;;
54261;SDS011;40174;52.364;6.452;2023-05-17T11:56:08;7.75;;;1.05;;
54261;SDS011;40174;52.364;6.452;2023-05-17T11:58:35;4.28;;;0.95;;
54261;SDS011;40174;52.364;6.452;2023-05-17T12:01:02;6.20;;;1.35;;
54261;SDS011;40174;52.364;6.452;2023-05-17T12:03:31;5.47;;;1.20;;
54261;SDS011;40174;52.364;6.452;2023-05-17T12:06:02;4.20;;;1.05;;
54261;SDS011;40174;52.364;6.452;2023-05-17T12:08:32;4.95;;;1.00;;
54261;SDS011;40174;52.364;6.452;2023-05-17T12:10:59;6.28;;;1.58;;
54261;SDS011;40174;52.364;6.452;2023-05-17T12:13:27;4.55;;;1.10;;
54261;SDS011;40174;52.364;6.452;2023-05-17T12:15:55;6.63;;;1.17;;
54261;SDS011;40174;52.364;6.452;2023-05-17T12:18:22;6.35;;;1.20;;
54261;SDS011;40174;52.364;6.452;2023-05-17T12:20:53;12.20;;;1.20;;
54261;SDS011;40174;52.364;6.452;2023-05-17T12:23:27;7.47;;;1.80;;
54261;SDS011;40174;52.364;6.452;2023-05-17T12:26:06;11.07;;;1.33;;
54261;SDS011;40174;52.364;6.452;2023-05-17T12:28:34;8.85;;;1.70;;
54261;SDS011;40174;52.364;6.452;2023-05-17T12:31:01;9.10;;;0.95;;
54261;SDS011;40174;52.364;6.452;2023-05-17T12:33:30;8.30;;;1.40;;
54261;SDS011;40174;52.364;6.452;2023-05-17T12:36:00;7.63;;;1.13;;
54261;SDS011;40174;52.364;6.452;2023-05-17T12:38:27;4.47;;;1.60;;
54261;SDS011;40174;52.364;6.452;2023-05-17T12:40:57;4.55;;;1.15;;
54261;SDS011;40174;52.364;6.452;2023-05-17T12:43:27;10.15;;;1.40;;
54261;SDS011;40174;52.364;6.452;2023-05-17T12:46:00;7.10;;;1.20;;
54261;SDS011;40174;52.364;6.452;2023-05-17T12:48:28;9.88;;;1.42;;
54261;SDS011;40174;52.364;6.452;2023-05-17T12:50:55;4.88;;;1.33;;
54261;SDS011;40174;52.364;6.452;2023-05-17T12:53:21;6.57;;;1.25;;
54261;SDS011;40174;52.364;6.452;2023-05-17T12:55:49;9.77;;;1.42;;
54261;SDS011;40174;52.364;6.452;2023-05-17T12:58:15;5.70;;;1.48;;
54261;SDS011;40174;52.364;6.452;2023-05-17T13:00:56;8.20;;;1.48;;
54261;SDS011;40174;52.364;6.452;2023-05-17T13:03:24;4.32;;;1.02;;
54261;SDS011;40174;52.364;6.452;2023-05-17T13:06:01;5.50;;;0.93;;
54261;SDS011;40174;52.364;6.452;2023-05-17T13:08:29;10.63;;;1.52;;
54261;SDS011;40174;52.364;6.452;2023-05-17T13:11:05;7.00;;;1.50;;
54261;SDS011;40174;52.364;6.452;2023-05-17T13:13:35;8.25;;;1.52;;
54261;SDS011;40174;52.364;6.452;2023-05-17T13:16:04;4.65;;;1.15;;
54261;SDS011;40174;52.364;6.452;2023-05-17T13:18:45;8.35;;;1.45;;
54261;SDS011;40174;52.364;6.452;2023-05-17T13:21:16;7.07;;;1.13;;
54261;SDS011;40174;52.364;6.452;2023-05-17T13:23:45;6.47;;;1.23;;
54261;SDS011;40174;52.364;6.452;2023-05-17T13:26:12;5.18;;;1.20;;
54261;SDS011;40174;52.364;6.452;2023-05-17T13:28:39;6.72;;;1.75;;
54261;SDS011;40174;52.364;6.452;2023-05-17T13:31:07;6.07;;;1.52;;
54261;SDS011;40174;52.364;6.452;2023-05-17T13:33:34;7.57;;;1.17;;
54261;SDS011;40174;52.364;6.452;2023-05-17T13:36:01;7.03;;;1.38;;
54261;SDS011;40174;52.364;6.452;2023-05-17T13:38:27;7.90;;;1.27;;
54261;SDS011;40174;52.364;6.452;2023-05-17T13:40:54;6.97;;;1.50;;
54261;SDS011;40174;52.364;6.452;2023-05-17T13:43:20;7.88;;;1.17;;
54261;SDS011;40174;52.364;6.452;2023-05-17T13:45:47;3.88;;;1.00;;
54261;SDS011;40174;52.364;6.452;2023-05-17T13:48:19;11.48;;;1.48;;
54261;SDS011;40174;52.364;6.452;2023-05-17T13:50:46;6.97;;;1.63;;
54261;SDS011;40174;52.364;6.452;2023-05-17T13:53:13;4.93;;;1.10;;
54261;SDS011;40174;52.364;6.452;2023-05-17T13:55:39;3.80;;;0.95;;
54261;SDS011;40174;52.364;6.452;2023-05-17T13:58:06;5.90;;;1.38;;
54261;SDS011;40174;52.364;6.452;2023-05-17T14:00:32;9.43;;;1.95;;
54261;SDS011;40174;52.364;6.452;2023-05-17T14:02:59;6.40;;;0.95;;
54261;SDS011;40174;52.364;6.452;2023-05-17T14:05:27;5.60;;;1.15;;
54261;SDS011;40174;52.364;6.452;2023-05-17T14:07:55;7.13;;;1.20;;
54261;SDS011;40174;52.364;6.452;2023-05-17T14:10:22;5.43;;;1.10;;
54261;SDS011;40174;52.364;6.452;2023-05-17T14:12:48;4.93;;;1.08;;
54261;SDS011;40174;52.364;6.452;2023-05-17T14:15:15;7.85;;;1.30;;
54261;SDS011;40174;52.364;6.452;2023-05-17T14:17:42;5.50;;;1.30;;
54261;SDS011;40174;52.364;6.452;2023-05-17T14:20:09;6.50;;;1.05;;
54261;SDS011;40174;52.364;6.452;2023-05-17T14:22:37;7.40;;;0.90;;
54261;SDS011;40174;52.364;6.452;2023-05-17T14:25:04;8.70;;;1.60;;
54261;SDS011;40174;52.364;6.452;2023-05-17T14:27:31;4.07;;;1.35;;
54261;SDS011;40174;52.364;6.452;2023-05-17T14:29:58;6.20;;;0.90;;
54261;SDS011;40174;52.364;6.452;2023-05-17T14:32:25;6.00;;;1.15;;
54261;SDS011;40174;52.364;6.452;2023-05-17T14:34:52;3.30;;;0.82;;
54261;SDS011;40174;52.364;6.452;2023-05-17T14:37:18;4.40;;;1.02;;
54261;SDS011;40174;52.364;6.452;2023-05-17T14:39:47;4.57;;;0.85;;
54261;SDS011;40174;52.364;6.452;2023-05-17T14:42:13;3.25;;;0.90;;
54261;SDS011;40174;52.364;6.452;2023-05-17T14:44:40;5.97;;;1.13;;
54261;SDS011;40174;52.364;6.452;2023-05-17T14:47:07;2.80;;;1.05;;
54261;SDS011;40174;52.364;6.452;2023-05-17T14:49:33;3.17;;;0.88;;
54261;SDS011;40174;52.364;6.452;2023-05-17T14:52:00;6.63;;;1.00;;
54261;SDS011;40174;52.364;6.452;2023-05-17T14:54:26;6.63;;;0.95;;
54261;SDS011;40174;52.364;6.452;2023-05-17T14:56:56;5.15;;;0.77;;
54261;SDS011;40174;52.364;6.452;2023-05-17T14:59:23;4.45;;;0.80;;
54261;SDS011;40174;52.364;6.452;2023-05-17T15:01:49;3.35;;;1.25;;
54261;SDS011;40174;52.364;6.452;2023-05-17T15:04:16;3.28;;;0.80;;